sensor_id;sensor_type;location;lat;lon;timestamp;temperature;humidity
14475;DHT22;7323;50.848;4.334;2024-01-30T00:01:51;11.80;99.90
14475;DHT22;7323;50.848;4.334;2024-01-30T00:04:17;11.90;99.90
14475;DHT22;7323;50.848;4.334;2024-01-30T00:06:43;11.80;99.90
14475;DHT22;7323;50.848;4.334;2024-01-30T00:09:09;11.90;99.90
14475;DHT22;7323;50.848;4.334;2024-01-30T00:11:36;11.90;99.90
14475;DHT22;7323;50.848;4.334;2024-01-30T00:14:03;11.90;99.90
14475;DHT22;7323;50.848;4.334;2024-01-30T00:16:30;11.90;99.90
14475;DHT22;7323;50.848;4.334;2024-01-30T00:18:55;11.90;99.90
14475;DHT22;7323;50.848;4.334;2024-01-30T00:21:22;12.00;99.90
14475;DHT22;7323;50.848;4.334;2024-01-30T00:23:48;12.00;99.90
14475;DHT22;7323;50.848;4.334;2024-01-30T00:26:13;12.00;99.90
14475;DHT22;7323;50.848;4.334;2024-01-30T00:28:41;12.00;99.90
14475;DHT22;7323;50.848;4.334;2024-01-30T00:31:06;12.00;99.90
14475;DHT22;7323;50.848;4.334;2024-01-30T00:33:32;12.00;99.90
14475;DHT22;7323;50.848;4.334;2024-01-30T00:35:58;12.10;99.90
14475;DHT22;7323;50.848;4.334;2024-01-30T00:38:24;12.00;99.90
14475;DHT22;7323;50.848;4.334;2024-01-30T00:40:49;12.10;99.90
14475;DHT22;7323;50.848;4.334;2024-01-30T00:43:16;12.10;99.90
14475;DHT22;7323;50.848;4.334;2024-01-30T00:45:43;12.10;99.90
14475;DHT22;7323;50.848;4.334;2024-01-30T00:48:09;12.10;99.90
14475;DHT22;7323;50.848;4.334;2024-01-30T00:50:35;12.10;99.90
14475;DHT22;7323;50.848;4.334;2024-01-30T00:53:01;12.20;99.90
14475;DHT22;7323;50.848;4.334;2024-01-30T00:55:26;12.20;99.90
14475;DHT22;7323;50.848;4.334;2024-01-30T00:57:52;12.30;99.90
14475;DHT22;7323;50.848;4.334;2024-01-30T01:00:18;12.30;99.90
14475;DHT22;7323;50.848;4.334;2024-01-30T01:02:44;12.30;99.90
14475;DHT22;7323;50.848;4.334;2024-01-30T01:05:10;12.30;99.90
14475;DHT22;7323;50.848;4.334;2024-01-30T01:07:36;12.30;99.90
14475;DHT22;7323;50.848;4.334;2024-01-30T01:10:01;12.30;99.90
14475;DHT22;7323;50.848;4.334;2024-01-30T01:12:28;12.30;99.90
14475;DHT22;7323;50.848;4.334;2024-01-30T01:14:53;12.30;99.90
14475;DHT22;7323;50.848;4.334;2024-01-30T01:17:19;12.20;99.90
14475;DHT22;7323;50.848;4.334;2024-01-30T01:19:45;12.30;99.90
14475;DHT22;7323;50.848;4.334;2024-01-30T01:22:10;12.30;99.90
14475;DHT22;7323;50.848;4.334;2024-01-30T01:24:36;12.30;99.90
14475;DHT22;7323;50.848;4.334;2024-01-30T01:27:02;12.30;99.90
14475;DHT22;7323;50.848;4.334;2024-01-30T01:29:28;12.30;99.90
14475;DHT22;7323;50.848;4.334;2024-01-30T01:31:55;12.30;99.90
14475;DHT22;7323;50.848;4.334;2024-01-30T01:34:21;12.30;99.90
14475;DHT22;7323;50.848;4.334;2024-01-30T01:36:47;12.30;99.90
14475;DHT22;7323;50.848;4.334;2024-01-30T01:39:13;12.30;99.90
14475;DHT22;7323;50.848;4.334;2024-01-30T01:41:38;12.30;99.90
14475;DHT22;7323;50.848;4.334;2024-01-30T01:44:04;12.30;99.90
14475;DHT22;7323;50.848;4.334;2024-01-30T01:46:33;12.30;99.90
14475;DHT22;7323;50.848;4.334;2024-01-30T01:49:00;12.30;99.90
14475;DHT22;7323;50.848;4.334;2024-01-30T01:51:28;12.30;99.90
14475;DHT22;7323;50.848;4.334;2024-01-30T01:53:55;12.30;99.90
14475;DHT22;7323;50.848;4.334;2024-01-30T01:56:25;12.30;99.90
14475;DHT22;7323;50.848;4.334;2024-01-30T01:58:54;12.30;99.90
14475;DHT22;7323;50.848;4.334;2024-01-30T02:01:21;12.30;99.90
14475;DHT22;7323;50.848;4.334;2024-01-30T02:03:47;12.30;99.90
14475;DHT22;7323;50.848;4.334;2024-01-30T02:06:16;12.30;99.90
14475;DHT22;7323;50.848;4.334;2024-01-30T02:08:42;12.30;99.90
14475;DHT22;7323;50.848;4.334;2024-01-30T02:11:08;12.40;99.90
14475;DHT22;7323;50.848;4.334;2024-01-30T02:13:36;12.30;99.90
14475;DHT22;7323;50.848;4.334;2024-01-30T02:16:01;12.40;99.90
14475;DHT22;7323;50.848;4.334;2024-01-30T02:18:27;12.40;99.90
14475;DHT22;7323;50.848;4.334;2024-01-30T02:20:54;12.40;99.90
14475;DHT22;7323;50.848;4.334;2024-01-30T02:23:20;12.40;99.90
14475;DHT22;7323;50.848;4.334;2024-01-30T02:25:45;12.50;99.90
14475;DHT22;7323;50.848;4.334;2024-01-30T02:28:12;12.40;99.90
14475;DHT22;7323;50.848;4.334;2024-01-30T02:30:44;12.40;99.90
14475;DHT22;7323;50.848;4.334;2024-01-30T02:33:10;12.30;99.90
14475;DHT22;7323;50.848;4.334;2024-01-30T02:35:35;12.30;99.90
14475;DHT22;7323;50.848;4.334;2024-01-30T02:38:01;12.40;99.90
14475;DHT22;7323;50.848;4.334;2024-01-30T02:40:27;12.40;99.90
14475;DHT22;7323;50.848;4.334;2024-01-30T02:42:52;12.40;99.90
14475;DHT22;7323;50.848;4.334;2024-01-30T02:45:18;12.40;99.90
14475;DHT22;7323;50.848;4.334;2024-01-30T02:47:45;12.30;99.90
14475;DHT22;7323;50.848;4.334;2024-01-30T02:50:11;12.40;99.90
14475;DHT22;7323;50.848;4.334;2024-01-30T02:52:36;12.40;99.90
14475;DHT22;7323;50.848;4.334;2024-01-30T02:55:03;12.50;99.90
14475;DHT22;7323;50.848;4.334;2024-01-30T02:57:29;12.40;99.90
14475;DHT22;7323;50.848;4.334;2024-01-30T02:59:55;12.60;99.90
14475;DHT22;7323;50.848;4.334;2024-01-30T03:02:20;12.50;99.90
14475;DHT22;7323;50.848;4.334;2024-01-30T03:04:47;12.40;99.90
14475;DHT22;7323;50.848;4.334;2024-01-30T03:07:12;12.40;99.90
14475;DHT22;7323;50.848;4.334;2024-01-30T03:09:38;12.60;99.90
14475;DHT22;7323;50.848;4.334;2024-01-30T03:12:04;12.50;99.90
14475;DHT22;7323;50.848;4.334;2024-01-30T03:14:31;12.50;99.90
14475;DHT22;7323;50.848;4.334;2024-01-30T03:16:57;12.50;99.90
14475;DHT22;7323;50.848;4.334;2024-01-30T03:19:23;12.60;99.90
14475;DHT22;7323;50.848;4.334;2024-01-30T03:21:49;12.40;99.90
14475;DHT22;7323;50.848;4.334;2024-01-30T03:24:14;12.40;99.90
14475;DHT22;7323;50.848;4.334;2024-01-30T03:26:40;12.50;99.90
14475;DHT22;7323;50.848;4.334;2024-01-30T03:29:06;12.40;99.90
14475;DHT22;7323;50.848;4.334;2024-01-30T03:31:33;12.40;99.90
14475;DHT22;7323;50.848;4.334;2024-01-30T03:33:58;12.50;99.90
14475;DHT22;7323;50.848;4.334;2024-01-30T03:36:24;12.40;99.90
14475;DHT22;7323;50.848;4.334;2024-01-30T03:38:50;12.40;99.90
14475;DHT22;7323;50.848;4.334;2024-01-30T03:41:15;12.30;99.90
14475;DHT22;7323;50.848;4.334;2024-01-30T03:43:41;12.30;99.90
14475;DHT22;7323;50.848;4.334;2024-01-30T03:46:07;12.30;99.90
14475;DHT22;7323;50.848;4.334;2024-01-30T03:48:32;12.30;99.90
14475;DHT22;7323;50.848;4.334;2024-01-30T03:50:58;12.20;99.90
14475;DHT22;7323;50.848;4.334;2024-01-30T03:53:24;12.20;99.90
14475;DHT22;7323;50.848;4.334;2024-01-30T03:55:49;12.30;99.90
14475;DHT22;7323;50.848;4.334;2024-01-30T03:58:15;12.20;99.90
14475;DHT22;7323;50.848;4.334;2024-01-30T04:00:41;12.30;99.90
14475;DHT22;7323;50.848;4.334;2024-01-30T04:03:06;12.30;99.90
14475;DHT22;7323;50.848;4.334;2024-01-30T04:05:32;12.20;99.90
14475;DHT22;7323;50.848;4.334;2024-01-30T04:07:58;12.20;99.90
14475;DHT22;7323;50.848;4.334;2024-01-30T04:10:24;12.20;99.90
14475;DHT22;7323;50.848;4.334;2024-01-30T04:12:50;12.20;99.90
14475;DHT22;7323;50.848;4.334;2024-01-30T04:15:17;12.30;99.90
14475;DHT22;7323;50.848;4.334;2024-01-30T04:17:43;12.40;99.90
14475;DHT22;7323;50.848;4.334;2024-01-30T04:20:14;12.30;99.90
14475;DHT22;7323;50.848;4.334;2024-01-30T04:22:45;12.30;99.90
14475;DHT22;7323;50.848;4.334;2024-01-30T04:25:12;12.20;99.90
14475;DHT22;7323;50.848;4.334;2024-01-30T04:27:38;12.30;99.90
14475;DHT22;7323;50.848;4.334;2024-01-30T04:30:04;12.30;99.90
14475;DHT22;7323;50.848;4.334;2024-01-30T04:32:30;12.20;99.90
14475;DHT22;7323;50.848;4.334;2024-01-30T04:34:56;12.20;99.90
14475;DHT22;7323;50.848;4.334;2024-01-30T04:37:21;12.20;99.90
14475;DHT22;7323;50.848;4.334;2024-01-30T04:39:47;12.20;99.90
14475;DHT22;7323;50.848;4.334;2024-01-30T04:42:13;12.30;99.90
14475;DHT22;7323;50.848;4.334;2024-01-30T04:44:38;12.30;99.90
14475;DHT22;7323;50.848;4.334;2024-01-30T04:47:04;12.30;99.90
14475;DHT22;7323;50.848;4.334;2024-01-30T04:49:31;12.30;99.90
14475;DHT22;7323;50.848;4.334;2024-01-30T04:51:57;12.40;99.90
14475;DHT22;7323;50.848;4.334;2024-01-30T04:54:24;12.40;99.90
14475;DHT22;7323;50.848;4.334;2024-01-30T04:56:49;12.50;99.90
14475;DHT22;7323;50.848;4.334;2024-01-30T04:59:15;12.30;99.90
14475;DHT22;7323;50.848;4.334;2024-01-30T05:01:41;12.30;99.90
14475;DHT22;7323;50.848;4.334;2024-01-30T05:04:10;12.30;99.90
14475;DHT22;7323;50.848;4.334;2024-01-30T05:06:36;12.30;99.90
14475;DHT22;7323;50.848;4.334;2024-01-30T05:09:02;12.30;99.90
14475;DHT22;7323;50.848;4.334;2024-01-30T05:11:30;12.20;99.90
14475;DHT22;7323;50.848;4.334;2024-01-30T05:13:55;12.30;99.90
14475;DHT22;7323;50.848;4.334;2024-01-30T05:16:21;12.20;99.90
14475;DHT22;7323;50.848;4.334;2024-01-30T05:18:47;12.20;99.90
14475;DHT22;7323;50.848;4.334;2024-01-30T05:21:13;12.20;99.90
14475;DHT22;7323;50.848;4.334;2024-01-30T05:23:39;12.20;99.90
14475;DHT22;7323;50.848;4.334;2024-01-30T05:26:05;12.20;99.90
14475;DHT22;7323;50.848;4.334;2024-01-30T05:28:32;12.20;99.90
14475;DHT22;7323;50.848;4.334;2024-01-30T05:30:57;12.20;99.90
14475;DHT22;7323;50.848;4.334;2024-01-30T05:33:23;12.10;99.90
14475;DHT22;7323;50.848;4.334;2024-01-30T05:35:48;12.20;99.90
14475;DHT22;7323;50.848;4.334;2024-01-30T05:38:16;12.20;99.90
14475;DHT22;7323;50.848;4.334;2024-01-30T05:40:42;12.10;99.90
14475;DHT22;7323;50.848;4.334;2024-01-30T05:43:07;12.20;99.90
14475;DHT22;7323;50.848;4.334;2024-01-30T05:45:33;12.10;99.90
14475;DHT22;7323;50.848;4.334;2024-01-30T05:48:00;12.10;99.90
14475;DHT22;7323;50.848;4.334;2024-01-30T05:50:26;12.10;99.90
14475;DHT22;7323;50.848;4.334;2024-01-30T05:52:52;12.10;99.90
14475;DHT22;7323;50.848;4.334;2024-01-30T05:55:18;12.10;99.90
14475;DHT22;7323;50.848;4.334;2024-01-30T05:57:44;12.10;99.90
14475;DHT22;7323;50.848;4.334;2024-01-30T06:00:10;12.10;99.90
14475;DHT22;7323;50.848;4.334;2024-01-30T06:02:36;12.20;99.90
14475;DHT22;7323;50.848;4.334;2024-01-30T06:05:01;12.30;99.90
14475;DHT22;7323;50.848;4.334;2024-01-30T06:07:27;12.30;99.90
14475;DHT22;7323;50.848;4.334;2024-01-30T06:09:53;12.20;99.90
14475;DHT22;7323;50.848;4.334;2024-01-30T06:12:18;12.30;99.90
14475;DHT22;7323;50.848;4.334;2024-01-30T06:14:44;12.30;99.90
14475;DHT22;7323;50.848;4.334;2024-01-30T06:17:10;12.30;99.90
14475;DHT22;7323;50.848;4.334;2024-01-30T06:19:40;12.30;99.90
14475;DHT22;7323;50.848;4.334;2024-01-30T06:22:07;12.20;99.90
14475;DHT22;7323;50.848;4.334;2024-01-30T06:24:33;12.30;99.90
14475;DHT22;7323;50.848;4.334;2024-01-30T06:27:00;12.20;99.90
14475;DHT22;7323;50.848;4.334;2024-01-30T06:29:26;12.50;99.90
14475;DHT22;7323;50.848;4.334;2024-01-30T06:31:52;12.60;99.90
14475;DHT22;7323;50.848;4.334;2024-01-30T06:34:18;12.50;99.90
14475;DHT22;7323;50.848;4.334;2024-01-30T06:36:43;12.40;99.90
14475;DHT22;7323;50.848;4.334;2024-01-30T06:39:09;12.30;99.90
14475;DHT22;7323;50.848;4.334;2024-01-30T06:41:34;12.30;99.90
14475;DHT22;7323;50.848;4.334;2024-01-30T06:44:02;12.30;99.90
14475;DHT22;7323;50.848;4.334;2024-01-30T06:46:29;12.30;99.90
14475;DHT22;7323;50.848;4.334;2024-01-30T06:48:55;12.30;99.90
14475;DHT22;7323;50.848;4.334;2024-01-30T06:51:20;12.30;99.90
14475;DHT22;7323;50.848;4.334;2024-01-30T06:53:46;12.20;99.90
14475;DHT22;7323;50.848;4.334;2024-01-30T06:56:13;12.20;99.90
14475;DHT22;7323;50.848;4.334;2024-01-30T06:58:38;12.20;99.90
14475;DHT22;7323;50.848;4.334;2024-01-30T07:01:04;12.30;99.90
14475;DHT22;7323;50.848;4.334;2024-01-30T07:03:30;12.10;99.90
14475;DHT22;7323;50.848;4.334;2024-01-30T07:05:55;12.20;99.90
14475;DHT22;7323;50.848;4.334;2024-01-30T07:08:21;12.10;99.90
14475;DHT22;7323;50.848;4.334;2024-01-30T07:10:47;12.20;99.90
14475;DHT22;7323;50.848;4.334;2024-01-30T07:13:13;12.10;99.90
14475;DHT22;7323;50.848;4.334;2024-01-30T07:15:42;12.20;99.90
14475;DHT22;7323;50.848;4.334;2024-01-30T07:18:07;12.20;99.90
14475;DHT22;7323;50.848;4.334;2024-01-30T07:20:35;12.30;99.90
14475;DHT22;7323;50.848;4.334;2024-01-30T07:23:01;12.20;99.90
14475;DHT22;7323;50.848;4.334;2024-01-30T07:25:27;12.10;99.90
14475;DHT22;7323;50.848;4.334;2024-01-30T07:27:54;12.20;99.90
14475;DHT22;7323;50.848;4.334;2024-01-30T07:30:20;12.20;99.90
14475;DHT22;7323;50.848;4.334;2024-01-30T07:32:47;12.20;99.90
14475;DHT22;7323;50.848;4.334;2024-01-30T07:35:13;12.20;99.90
14475;DHT22;7323;50.848;4.334;2024-01-30T07:37:39;12.40;99.90
14475;DHT22;7323;50.848;4.334;2024-01-30T07:40:06;12.30;99.90
14475;DHT22;7323;50.848;4.334;2024-01-30T07:42:32;12.20;99.90
14475;DHT22;7323;50.848;4.334;2024-01-30T07:44:59;12.30;99.90
14475;DHT22;7323;50.848;4.334;2024-01-30T07:47:24;12.10;99.90
14475;DHT22;7323;50.848;4.334;2024-01-30T07:49:50;12.30;99.90
14475;DHT22;7323;50.848;4.334;2024-01-30T07:52:16;12.20;99.90
14475;DHT22;7323;50.848;4.334;2024-01-30T07:54:49;12.10;99.90
14475;DHT22;7323;50.848;4.334;2024-01-30T07:57:15;12.10;99.90
14475;DHT22;7323;50.848;4.334;2024-01-30T07:59:44;12.10;99.90
14475;DHT22;7323;50.848;4.334;2024-01-30T08:02:13;12.10;99.90
14475;DHT22;7323;50.848;4.334;2024-01-30T08:04:39;12.10;99.90
14475;DHT22;7323;50.848;4.334;2024-01-30T08:07:05;12.10;99.90
14475;DHT22;7323;50.848;4.334;2024-01-30T08:09:31;12.00;99.90
14475;DHT22;7323;50.848;4.334;2024-01-30T08:11:56;12.10;99.90
14475;DHT22;7323;50.848;4.334;2024-01-30T08:14:22;12.10;99.90
14475;DHT22;7323;50.848;4.334;2024-01-30T08:16:48;12.10;99.90
14475;DHT22;7323;50.848;4.334;2024-01-30T08:19:15;12.00;99.90
14475;DHT22;7323;50.848;4.334;2024-01-30T08:21:42;11.90;99.90
14475;DHT22;7323;50.848;4.334;2024-01-30T08:24:08;11.90;99.90
14475;DHT22;7323;50.848;4.334;2024-01-30T08:26:34;11.90;99.90
14475;DHT22;7323;50.848;4.334;2024-01-30T08:29:00;12.00;99.90
14475;DHT22;7323;50.848;4.334;2024-01-30T08:31:26;12.10;99.90
14475;DHT22;7323;50.848;4.334;2024-01-30T08:33:51;12.00;99.90
14475;DHT22;7323;50.848;4.334;2024-01-30T08:36:17;12.00;99.90
14475;DHT22;7323;50.848;4.334;2024-01-30T08:38:43;12.00;99.90
14475;DHT22;7323;50.848;4.334;2024-01-30T08:41:09;11.90;99.90
14475;DHT22;7323;50.848;4.334;2024-01-30T08:43:35;12.00;99.90
14475;DHT22;7323;50.848;4.334;2024-01-30T08:46:02;12.00;99.90
14475;DHT22;7323;50.848;4.334;2024-01-30T08:48:28;12.10;99.90
14475;DHT22;7323;50.848;4.334;2024-01-30T08:50:53;12.20;99.90
14475;DHT22;7323;50.848;4.334;2024-01-30T08:53:19;12.30;99.90
14475;DHT22;7323;50.848;4.334;2024-01-30T08:55:45;12.40;99.90
14475;DHT22;7323;50.848;4.334;2024-01-30T08:58:11;12.30;99.90
14475;DHT22;7323;50.848;4.334;2024-01-30T09:00:36;12.40;99.90
14475;DHT22;7323;50.848;4.334;2024-01-30T09:03:03;12.30;99.90
14475;DHT22;7323;50.848;4.334;2024-01-30T09:05:29;12.30;99.90
14475;DHT22;7323;50.848;4.334;2024-01-30T09:07:55;12.30;99.90
14475;DHT22;7323;50.848;4.334;2024-01-30T09:10:20;12.30;99.90
14475;DHT22;7323;50.848;4.334;2024-01-30T09:12:47;12.40;99.90
14475;DHT22;7323;50.848;4.334;2024-01-30T09:15:13;12.30;99.90
14475;DHT22;7323;50.848;4.334;2024-01-30T09:17:40;12.40;99.90
14475;DHT22;7323;50.848;4.334;2024-01-30T09:20:06;12.40;99.90
14475;DHT22;7323;50.848;4.334;2024-01-30T09:22:32;12.40;99.90
14475;DHT22;7323;50.848;4.334;2024-01-30T09:24:58;12.40;99.90
14475;DHT22;7323;50.848;4.334;2024-01-30T09:27:24;12.40;99.90
14475;DHT22;7323;50.848;4.334;2024-01-30T09:29:49;12.40;99.90
14475;DHT22;7323;50.848;4.334;2024-01-30T09:32:15;12.50;99.90
14475;DHT22;7323;50.848;4.334;2024-01-30T09:34:41;12.40;99.90
14475;DHT22;7323;50.848;4.334;2024-01-30T09:37:07;12.40;99.90
14475;DHT22;7323;50.848;4.334;2024-01-30T09:39:33;12.60;99.90
14475;DHT22;7323;50.848;4.334;2024-01-30T09:42:16;12.60;99.90
14475;DHT22;7323;50.848;4.334;2024-01-30T09:44:44;12.50;99.90
14475;DHT22;7323;50.848;4.334;2024-01-30T09:47:10;12.30;99.90
14475;DHT22;7323;50.848;4.334;2024-01-30T09:49:37;12.40;99.90
14475;DHT22;7323;50.848;4.334;2024-01-30T09:52:05;12.40;99.90
14475;DHT22;7323;50.848;4.334;2024-01-30T09:54:31;12.30;99.90
14475;DHT22;7323;50.848;4.334;2024-01-30T09:56:57;12.30;99.90
14475;DHT22;7323;50.848;4.334;2024-01-30T09:59:23;12.40;99.90
14475;DHT22;7323;50.848;4.334;2024-01-30T10:01:50;12.40;99.90
14475;DHT22;7323;50.848;4.334;2024-01-30T10:04:17;12.30;99.90
14475;DHT22;7323;50.848;4.334;2024-01-30T10:06:43;12.20;99.90
14475;DHT22;7323;50.848;4.334;2024-01-30T10:09:09;12.30;99.90
14475;DHT22;7323;50.848;4.334;2024-01-30T10:11:38;12.30;99.90
14475;DHT22;7323;50.848;4.334;2024-01-30T10:14:04;12.20;99.90
14475;DHT22;7323;50.848;4.334;2024-01-30T10:16:30;12.30;99.90
14475;DHT22;7323;50.848;4.334;2024-01-30T10:18:55;12.20;99.90
14475;DHT22;7323;50.848;4.334;2024-01-30T10:21:22;12.20;99.90
14475;DHT22;7323;50.848;4.334;2024-01-30T10:23:48;12.20;99.90
14475;DHT22;7323;50.848;4.334;2024-01-30T10:26:16;12.20;99.90
14475;DHT22;7323;50.848;4.334;2024-01-30T10:28:43;12.20;99.90
14475;DHT22;7323;50.848;4.334;2024-01-30T10:31:08;12.10;99.90
14475;DHT22;7323;50.848;4.334;2024-01-30T10:33:35;12.10;99.90
14475;DHT22;7323;50.848;4.334;2024-01-30T10:36:03;12.00;99.90
14475;DHT22;7323;50.848;4.334;2024-01-30T10:38:31;11.90;99.90
14475;DHT22;7323;50.848;4.334;2024-01-30T10:40:59;11.90;99.90
14475;DHT22;7323;50.848;4.334;2024-01-30T10:43:33;11.80;99.90
14475;DHT22;7323;50.848;4.334;2024-01-30T10:46:19;11.80;99.90
14475;DHT22;7323;50.848;4.334;2024-01-30T10:49:06;11.80;99.90
14475;DHT22;7323;50.848;4.334;2024-01-30T10:51:32;11.80;99.90
14475;DHT22;7323;50.848;4.334;2024-01-30T10:54:00;11.80;99.90
14475;DHT22;7323;50.848;4.334;2024-01-30T10:56:26;11.80;99.90
14475;DHT22;7323;50.848;4.334;2024-01-30T10:58:53;11.90;99.90
14475;DHT22;7323;50.848;4.334;2024-01-30T11:01:23;11.90;99.90
14475;DHT22;7323;50.848;4.334;2024-01-30T11:03:54;11.80;99.90
14475;DHT22;7323;50.848;4.334;2024-01-30T11:06:26;11.80;99.90
14475;DHT22;7323;50.848;4.334;2024-01-30T11:09:05;11.80;99.90
14475;DHT22;7323;50.848;4.334;2024-01-30T11:11:51;11.70;99.90
14475;DHT22;7323;50.848;4.334;2024-01-30T11:14:29;11.80;99.90
14475;DHT22;7323;50.848;4.334;2024-01-30T11:16:58;11.70;99.90
14475;DHT22;7323;50.848;4.334;2024-01-30T11:19:30;11.60;99.90
14475;DHT22;7323;50.848;4.334;2024-01-30T11:21:56;11.60;99.90
14475;DHT22;7323;50.848;4.334;2024-01-30T11:24:25;11.50;99.90
14475;DHT22;7323;50.848;4.334;2024-01-30T11:26:58;11.40;99.90
14475;DHT22;7323;50.848;4.334;2024-01-30T11:29:28;11.40;99.90
14475;DHT22;7323;50.848;4.334;2024-01-30T11:31:58;11.40;99.90
14475;DHT22;7323;50.848;4.334;2024-01-30T11:34:24;11.40;99.90
14475;DHT22;7323;50.848;4.334;2024-01-30T11:36:56;11.40;99.90
14475;DHT22;7323;50.848;4.334;2024-01-30T11:39:26;11.50;99.90
14475;DHT22;7323;50.848;4.334;2024-01-30T11:41:54;11.50;99.90
14475;DHT22;7323;50.848;4.334;2024-01-30T11:44:20;11.60;99.90
14475;DHT22;7323;50.848;4.334;2024-01-30T11:46:50;11.50;99.90
14475;DHT22;7323;50.848;4.334;2024-01-30T11:49:16;11.50;99.90
14475;DHT22;7323;50.848;4.334;2024-01-30T11:51:45;11.60;99.90
14475;DHT22;7323;50.848;4.334;2024-01-30T11:54:11;11.70;99.90
14475;DHT22;7323;50.848;4.334;2024-01-30T11:56:37;11.80;99.90
14475;DHT22;7323;50.848;4.334;2024-01-30T11:59:04;11.80;99.90
14475;DHT22;7323;50.848;4.334;2024-01-30T12:01:31;11.90;99.90
14475;DHT22;7323;50.848;4.334;2024-01-30T12:03:59;11.90;99.90
14475;DHT22;7323;50.848;4.334;2024-01-30T12:06:26;11.70;99.90
14475;DHT22;7323;50.848;4.334;2024-01-30T12:08:58;11.60;99.90
14475;DHT22;7323;50.848;4.334;2024-01-30T12:11:26;11.70;99.90
14475;DHT22;7323;50.848;4.334;2024-01-30T12:13:55;11.70;99.90
14475;DHT22;7323;50.848;4.334;2024-01-30T12:16:21;11.70;99.90
14475;DHT22;7323;50.848;4.334;2024-01-30T12:18:48;11.80;99.90
14475;DHT22;7323;50.848;4.334;2024-01-30T12:21:17;11.80;99.90
14475;DHT22;7323;50.848;4.334;2024-01-30T12:23:43;11.90;99.90
14475;DHT22;7323;50.848;4.334;2024-01-30T12:26:10;11.90;99.90
14475;DHT22;7323;50.848;4.334;2024-01-30T12:28:47;12.00;99.90
14475;DHT22;7323;50.848;4.334;2024-01-30T12:31:32;11.90;99.90
14475;DHT22;7323;50.848;4.334;2024-01-30T12:34:01;11.90;99.90
14475;DHT22;7323;50.848;4.334;2024-01-30T12:36:29;12.00;99.90
14475;DHT22;7323;50.848;4.334;2024-01-30T12:38:56;12.00;99.90
14475;DHT22;7323;50.848;4.334;2024-01-30T12:41:22;11.90;99.90
14475;DHT22;7323;50.848;4.334;2024-01-30T12:43:53;11.90;99.90
14475;DHT22;7323;50.848;4.334;2024-01-30T12:46:19;12.00;99.90
14475;DHT22;7323;50.848;4.334;2024-01-30T12:48:45;12.10;99.90
14475;DHT22;7323;50.848;4.334;2024-01-30T12:51:11;11.90;99.90
14475;DHT22;7323;50.848;4.334;2024-01-30T12:53:36;11.90;99.90
14475;DHT22;7323;50.848;4.334;2024-01-30T12:56:02;12.00;99.90
14475;DHT22;7323;50.848;4.334;2024-01-30T12:58:28;12.00;99.90
14475;DHT22;7323;50.848;4.334;2024-01-30T13:00:54;12.10;99.90
14475;DHT22;7323;50.848;4.334;2024-01-30T13:03:20;12.20;99.90
14475;DHT22;7323;50.848;4.334;2024-01-30T13:05:45;12.20;99.90
14475;DHT22;7323;50.848;4.334;2024-01-30T13:08:11;12.20;99.90
14475;DHT22;7323;50.848;4.334;2024-01-30T13:10:37;12.30;99.90
14475;DHT22;7323;50.848;4.334;2024-01-30T13:13:03;12.30;99.90
14475;DHT22;7323;50.848;4.334;2024-01-30T13:15:28;12.30;99.90
14475;DHT22;7323;50.848;4.334;2024-01-30T13:17:54;12.10;99.90
14475;DHT22;7323;50.848;4.334;2024-01-30T13:20:20;11.90;99.90
14475;DHT22;7323;50.848;4.334;2024-01-30T13:22:49;11.80;99.90
14475;DHT22;7323;50.848;4.334;2024-01-30T13:25:15;11.80;99.90
14475;DHT22;7323;50.848;4.334;2024-01-30T13:27:41;11.70;99.90
14475;DHT22;7323;50.848;4.334;2024-01-30T13:30:07;11.60;99.90
14475;DHT22;7323;50.848;4.334;2024-01-30T13:32:34;11.50;99.90
14475;DHT22;7323;50.848;4.334;2024-01-30T13:35:00;11.50;99.90
14475;DHT22;7323;50.848;4.334;2024-01-30T13:37:26;11.50;99.90
14475;DHT22;7323;50.848;4.334;2024-01-30T13:39:52;11.50;99.90
14475;DHT22;7323;50.848;4.334;2024-01-30T13:42:17;11.50;99.90
14475;DHT22;7323;50.848;4.334;2024-01-30T13:44:43;11.50;99.90
14475;DHT22;7323;50.848;4.334;2024-01-30T13:47:09;11.50;99.90
14475;DHT22;7323;50.848;4.334;2024-01-30T13:49:35;11.60;99.90
14475;DHT22;7323;50.848;4.334;2024-01-30T13:52:01;11.60;99.90
14475;DHT22;7323;50.848;4.334;2024-01-30T13:54:26;11.60;99.90
14475;DHT22;7323;50.848;4.334;2024-01-30T13:56:52;11.60;99.90
14475;DHT22;7323;50.848;4.334;2024-01-30T13:59:18;11.60;99.90
14475;DHT22;7323;50.848;4.334;2024-01-30T14:01:49;11.60;99.90
14475;DHT22;7323;50.848;4.334;2024-01-30T14:04:14;11.60;99.90
14475;DHT22;7323;50.848;4.334;2024-01-30T14:06:41;11.50;99.90
14475;DHT22;7323;50.848;4.334;2024-01-30T14:09:06;11.50;99.90
14475;DHT22;7323;50.848;4.334;2024-01-30T14:11:32;11.50;99.90
14475;DHT22;7323;50.848;4.334;2024-01-30T14:13:59;11.40;99.90
14475;DHT22;7323;50.848;4.334;2024-01-30T14:16:24;11.30;99.90
14475;DHT22;7323;50.848;4.334;2024-01-30T14:18:50;11.20;99.90
14475;DHT22;7323;50.848;4.334;2024-01-30T14:21:16;11.20;99.90
14475;DHT22;7323;50.848;4.334;2024-01-30T14:23:42;11.30;99.90
14475;DHT22;7323;50.848;4.334;2024-01-30T14:26:07;11.20;99.90
14475;DHT22;7323;50.848;4.334;2024-01-30T14:28:33;11.30;99.90
14475;DHT22;7323;50.848;4.334;2024-01-30T14:30:59;11.20;99.90
14475;DHT22;7323;50.848;4.334;2024-01-30T14:33:25;11.10;99.90
14475;DHT22;7323;50.848;4.334;2024-01-30T14:35:51;11.10;99.90
14475;DHT22;7323;50.848;4.334;2024-01-30T14:38:17;11.10;99.90
14475;DHT22;7323;50.848;4.334;2024-01-30T14:40:43;11.00;99.90
14475;DHT22;7323;50.848;4.334;2024-01-30T14:43:08;10.90;99.90
14475;DHT22;7323;50.848;4.334;2024-01-30T14:45:34;10.90;99.90
14475;DHT22;7323;50.848;4.334;2024-01-30T14:48:00;10.90;99.90
14475;DHT22;7323;50.848;4.334;2024-01-30T14:50:26;10.90;99.90
14475;DHT22;7323;50.848;4.334;2024-01-30T14:52:53;10.90;99.90
14475;DHT22;7323;50.848;4.334;2024-01-30T14:55:19;10.90;99.90
14475;DHT22;7323;50.848;4.334;2024-01-30T14:57:48;10.90;99.90
14475;DHT22;7323;50.848;4.334;2024-01-30T15:00:16;10.80;99.90
14475;DHT22;7323;50.848;4.334;2024-01-30T15:02:42;10.80;99.90
14475;DHT22;7323;50.848;4.334;2024-01-30T15:05:07;10.60;99.90
14475;DHT22;7323;50.848;4.334;2024-01-30T15:07:36;10.60;99.90
14475;DHT22;7323;50.848;4.334;2024-01-30T15:10:02;10.60;99.90
14475;DHT22;7323;50.848;4.334;2024-01-30T15:12:28;10.50;99.90
14475;DHT22;7323;50.848;4.334;2024-01-30T15:14:54;10.60;99.90
14475;DHT22;7323;50.848;4.334;2024-01-30T15:17:22;10.80;99.90
14475;DHT22;7323;50.848;4.334;2024-01-30T15:19:48;10.60;99.90
14475;DHT22;7323;50.848;4.334;2024-01-30T15:22:13;10.50;99.90
14475;DHT22;7323;50.848;4.334;2024-01-30T15:24:39;10.50;99.90
14475;DHT22;7323;50.848;4.334;2024-01-30T15:27:05;10.50;99.90
14475;DHT22;7323;50.848;4.334;2024-01-30T15:29:31;10.40;99.90
14475;DHT22;7323;50.848;4.334;2024-01-30T15:31:57;10.40;99.90
14475;DHT22;7323;50.848;4.334;2024-01-30T15:34:22;10.50;99.90
14475;DHT22;7323;50.848;4.334;2024-01-30T15:36:48;10.50;99.90
14475;DHT22;7323;50.848;4.334;2024-01-30T15:39:14;10.50;99.90
14475;DHT22;7323;50.848;4.334;2024-01-30T15:41:41;10.50;99.90